createdAt,value
2022-10-19T00:00:35.520Z,20.13
2022-10-19T00:03:37.747Z,20.13
2022-10-19T00:06:40.052Z,20.13
2022-10-19T00:09:44.528Z,20.13
2022-10-19T00:15:53.513Z,20.13
2022-10-19T00:19:00.378Z,20.13
2022-10-19T00:22:02.422Z,20.06
2022-10-19T00:25:04.995Z,20.06
2022-10-19T00:28:06.994Z,20.06
2022-10-19T00:31:13.365Z,20.06
2022-10-19T00:34:15.353Z,20.06
2022-10-19T00:37:17.532Z,20.06
2022-10-19T00:40:19.621Z,20.06
2022-10-19T00:43:27.766Z,20.06
2022-10-19T00:46:32.582Z,20.06
2022-10-19T00:49:38.680Z,20.06
2022-10-19T00:52:41.025Z,20.00
2022-10-19T00:55:45.082Z,20.00
2022-10-19T00:58:47.323Z,20.06
2022-10-19T01:01:50.190Z,20.00
2022-10-19T01:04:53.122Z,20.00
2022-10-19T01:07:56.687Z,20.00
2022-10-19T01:11:25.268Z,20.00
2022-10-19T01:14:42.094Z,20.00
2022-10-19T01:18:07.927Z,20.00
2022-10-19T01:21:21.077Z,20.00
2022-10-19T01:25:03.413Z,19.94
2022-10-19T01:28:34.940Z,19.94
2022-10-19T01:31:51.304Z,19.94
2022-10-19T01:35:26.786Z,19.94
2022-10-19T01:38:50.426Z,19.94
2022-10-19T01:41:55.140Z,20.00
2022-10-19T01:45:18.569Z,19.94
2022-10-19T01:48:30.477Z,19.94
2022-10-19T01:51:36.254Z,19.94
2022-10-19T01:54:46.346Z,19.94
2022-10-19T01:57:54.657Z,19.94
2022-10-19T02:00:59.724Z,19.94
2022-10-19T02:04:03.580Z,19.94
2022-10-19T02:07:07.190Z,19.88
2022-10-19T02:10:09.495Z,19.88
2022-10-19T02:13:13.993Z,19.94
2022-10-19T02:16:27.495Z,19.88
2022-10-19T02:19:29.722Z,19.88
2022-10-19T02:22:32.661Z,19.88
2022-10-19T02:25:35.963Z,19.88
2022-10-19T02:28:38.596Z,19.88
2022-10-19T02:31:40.902Z,19.88
2022-10-19T02:34:43.133Z,19.88
2022-10-19T02:37:45.608Z,19.88
2022-10-19T02:40:55.991Z,19.88
2022-10-19T02:44:13.710Z,19.88
2022-10-19T02:47:22.605Z,19.81
2022-10-19T02:50:25.042Z,19.81
2022-10-19T02:53:27.169Z,19.88
2022-10-19T02:56:29.253Z,19.81
2022-10-19T02:59:31.461Z,19.81
2022-10-19T03:02:33.498Z,19.81
2022-10-19T03:05:35.549Z,19.81
2022-10-19T03:08:37.592Z,19.81
2022-10-19T03:11:39.688Z,19.81
2022-10-19T03:14:42.103Z,19.81
2022-10-19T03:17:44.259Z,19.81
2022-10-19T03:20:46.271Z,19.81
2022-10-19T03:23:48.317Z,19.81
2022-10-19T03:26:50.429Z,19.81
2022-10-19T03:29:52.460Z,19.75
2022-10-19T03:32:54.474Z,19.75
2022-10-19T03:36:16.602Z,19.75
2022-10-19T03:39:18.608Z,19.75
2022-10-19T03:42:20.605Z,19.75
2022-10-19T03:45:22.781Z,19.75
2022-10-19T03:48:24.812Z,19.75
2022-10-19T03:51:28.306Z,19.75
2022-10-19T03:54:30.348Z,19.69
2022-10-19T03:57:32.728Z,19.75
2022-10-19T04:00:35.062Z,19.75
2022-10-19T04:03:37.154Z,19.75
2022-10-19T04:06:41.321Z,19.75
2022-10-19T04:09:43.356Z,19.69
2022-10-19T04:12:45.357Z,19.69
2022-10-19T04:15:47.352Z,19.69
2022-10-19T04:18:49.539Z,19.69
2022-10-19T04:21:51.542Z,19.69
2022-10-19T04:24:54.105Z,19.69
2022-10-19T04:27:56.185Z,19.69
2022-10-19T04:31:01.989Z,19.69
2022-10-19T04:34:04.498Z,19.69
2022-10-19T04:37:06.508Z,19.69
2022-10-19T04:40:14.154Z,19.69
2022-10-19T04:43:17.312Z,19.69
2022-10-19T04:46:20.166Z,19.63
2022-10-19T04:49:22.304Z,19.69
2022-10-19T04:52:24.339Z,19.69
2022-10-19T04:55:26.411Z,19.63
2022-10-19T04:58:28.492Z,19.63
2022-10-19T05:01:31.547Z,19.69
2022-10-19T05:04:33.582Z,19.69
2022-10-19T05:07:35.867Z,19.69
2022-10-19T05:10:38.541Z,19.69
2022-10-19T05:13:41.487Z,19.63
2022-10-19T05:16:43.501Z,19.69
2022-10-19T05:19:45.703Z,19.75
2022-10-19T05:22:47.891Z,19.69
2022-10-19T05:25:50.014Z,19.75
2022-10-19T05:28:56.603Z,19.75
2022-10-19T05:31:59.154Z,19.75
2022-10-19T05:35:01.281Z,19.75
2022-10-19T05:38:03.277Z,19.75
2022-10-19T05:41:05.730Z,19.75
2022-10-19T05:44:07.943Z,19.75
2022-10-19T05:47:09.958Z,19.75
2022-10-19T05:50:12.128Z,19.75
2022-10-19T05:53:14.236Z,19.69
2022-10-19T05:56:27.817Z,19.69
2022-10-19T05:59:29.913Z,19.69
2022-10-19T06:02:32.078Z,19.69
2022-10-19T06:05:36.733Z,19.63
2022-10-19T06:08:40.026Z,19.63
2022-10-19T06:11:42.888Z,19.63
2022-10-19T06:17:46.922Z,19.63
2022-10-19T06:20:49.099Z,19.69
2022-10-19T06:23:55.864Z,19.69
2022-10-19T06:26:57.866Z,19.69
2022-10-19T06:29:59.887Z,19.69
2022-10-19T06:36:11.792Z,19.75
2022-10-19T06:39:13.819Z,19.75
2022-10-19T06:42:16.208Z,19.75
2022-10-19T06:45:18.492Z,19.81
2022-10-19T06:48:20.511Z,19.69
2022-10-19T06:51:22.933Z,19.63
2022-10-19T06:54:25.531Z,19.63
2022-10-19T06:57:28.604Z,19.63
2022-10-19T07:00:31.291Z,19.63
2022-10-19T07:03:33.645Z,19.63
2022-10-19T07:06:35.656Z,19.63
2022-10-19T07:09:37.689Z,19.69
2022-10-19T07:12:39.797Z,19.69
2022-10-19T07:15:41.814Z,19.69
2022-10-19T07:18:43.919Z,19.75
2022-10-19T07:21:46.026Z,19.75
2022-10-19T07:24:48.043Z,19.75
2022-10-19T07:27:50.090Z,19.75
2022-10-19T07:30:52.232Z,19.81
2022-10-19T07:33:55.743Z,19.94
2022-10-19T07:36:57.780Z,19.88
2022-10-19T07:39:59.867Z,19.88
2022-10-19T07:43:02.120Z,19.88
2022-10-19T07:46:06.699Z,19.94
2022-10-19T07:49:13.707Z,19.94
2022-10-19T07:52:16.260Z,19.94
2022-10-19T07:55:18.577Z,19.94
2022-10-19T07:58:20.808Z,20.06
2022-10-19T08:01:25.438Z,20.06
2022-10-19T08:04:58.969Z,20.06
2022-10-19T08:07:49.583Z,20.06
2022-10-19T08:10:51.590Z,20.13
2022-10-19T08:13:55.421Z,20.06
2022-10-19T08:16:57.657Z,20.06
2022-10-19T08:19:59.663Z,20.00
2022-10-19T08:23:02.397Z,20.00
2022-10-19T08:26:04.661Z,20.00
2022-10-19T08:29:12.207Z,19.94
2022-10-19T08:32:14.243Z,19.88
2022-10-19T08:35:16.382Z,19.88
2022-10-19T08:38:18.407Z,19.88
2022-10-19T08:41:55.302Z,19.94
2022-10-19T08:48:46.894Z,19.88
2022-10-19T08:51:54.887Z,19.88
2022-10-19T08:55:00.199Z,19.88
2022-10-19T08:58:16.386Z,19.88
2022-10-19T09:01:33.802Z,19.88
2022-10-19T09:04:48.381Z,19.81
2022-10-19T09:07:53.613Z,19.81
2022-10-19T09:10:57.563Z,19.81
2022-10-19T09:14:15.076Z,19.81
2022-10-19T09:17:17.500Z,19.81
2022-10-19T09:20:22.101Z,19.81
2022-10-19T09:23:41.023Z,19.81
2022-10-19T09:27:02.455Z,19.88
2022-10-19T09:30:25.423Z,19.94
2022-10-19T09:33:37.155Z,20.00
2022-10-19T09:36:51.734Z,19.94
2022-10-19T09:39:55.614Z,19.88
2022-10-19T09:42:59.529Z,19.94
2022-10-19T09:46:19.804Z,19.88
2022-10-19T09:49:42.067Z,19.88
2022-10-19T09:52:46.584Z,19.88
2022-10-19T09:55:57.138Z,19.94
2022-10-19T09:58:59.480Z,19.88
2022-10-19T10:02:28.366Z,19.94
2022-10-19T10:05:33.900Z,19.81
2022-10-19T10:08:52.689Z,19.94
2022-10-19T10:11:58.377Z,19.94
2022-10-19T10:15:02.597Z,19.94
2022-10-19T10:18:05.256Z,19.94
2022-10-19T10:21:25.310Z,19.94
2022-10-19T10:24:31.421Z,19.94
2022-10-19T10:27:36.197Z,19.94
2022-10-19T10:30:38.468Z,19.88
2022-10-19T10:33:44.911Z,19.88
2022-10-19T10:36:51.245Z,19.88
2022-10-19T10:39:56.667Z,19.94
2022-10-19T10:43:12.544Z,19.94
2022-10-19T10:46:16.989Z,19.94
2022-10-19T10:49:28.789Z,20.00
2022-10-19T10:52:31.895Z,20.13
2022-10-19T10:55:34.512Z,20.13
2022-10-19T10:58:47.700Z,20.13
2022-10-19T11:02:03.332Z,20.13
2022-10-19T11:05:27.183Z,20.19
2022-10-19T11:08:46.671Z,20.19
2022-10-19T11:11:50.962Z,20.19
2022-10-19T11:15:26.574Z,20.13
2022-10-19T11:18:51.623Z,20.13
2022-10-19T11:21:56.402Z,20.06
2022-10-19T11:25:28.017Z,20.06
2022-10-19T11:28:35.922Z,20.06
2022-10-19T11:31:53.609Z,20.06
2022-10-19T11:34:56.075Z,20.13
2022-10-19T11:38:21.819Z,20.13
2022-10-19T11:41:42.123Z,20.19
2022-10-19T11:45:00.681Z,20.19
2022-10-19T11:48:12.356Z,20.25
2022-10-19T11:51:40.944Z,20.19
2022-10-19T11:55:01.404Z,20.19
2022-10-19T11:58:21.286Z,20.25
2022-10-19T12:01:52.611Z,20.25
2022-10-19T12:05:00.210Z,20.25
2022-10-19T12:08:21.558Z,20.25
2022-10-19T12:11:38.160Z,20.31
2022-10-19T12:14:42.995Z,20.38
2022-10-19T12:17:49.347Z,20.38
2022-10-19T12:20:54.425Z,20.38
2022-10-19T12:24:01.997Z,20.44
2022-10-19T12:27:06.250Z,20.44
2022-10-19T12:30:14.983Z,20.44
2022-10-19T12:33:21.001Z,20.44
2022-10-19T12:36:32.952Z,20.50
2022-10-19T12:39:56.459Z,20.44
2022-10-19T12:43:07.926Z,20.44
2022-10-19T12:46:31.192Z,20.69
2022-10-19T12:49:33.184Z,20.63
2022-10-19T12:52:45.394Z,20.69
2022-10-19T12:55:57.575Z,20.81
2022-10-19T12:59:03.146Z,20.75
2022-10-19T13:02:24.589Z,20.75
2022-10-19T13:05:29.255Z,20.69
2022-10-19T13:08:38.784Z,20.75
2022-10-19T13:12:19.581Z,20.75
2022-10-19T13:15:34.831Z,20.88
2022-10-19T13:19:14.130Z,20.88
2022-10-19T13:22:29.021Z,20.81
2022-10-19T13:25:37.490Z,20.81
2022-10-19T13:28:51.472Z,20.75
2022-10-19T13:31:53.770Z,20.88
2022-10-19T13:34:55.999Z,20.88
2022-10-19T13:38:12.807Z,20.94
2022-10-19T13:41:26.568Z,20.88
2022-10-19T13:44:35.207Z,20.94
2022-10-19T13:47:43.181Z,21.06
2022-10-19T13:51:05.657Z,21.06
2022-10-19T13:54:41.798Z,21.06
2022-10-19T13:58:25.810Z,21.06
2022-10-19T14:01:38.612Z,21.00
2022-10-19T14:04:52.341Z,21.13
2022-10-19T14:08:09.206Z,21.25
2022-10-19T14:11:31.802Z,21.31
2022-10-19T14:17:49.084Z,21.56
2022-10-19T14:21:08.759Z,21.69
2022-10-19T14:24:25.992Z,21.75
2022-10-19T14:27:28.234Z,21.69
2022-10-19T14:30:35.529Z,21.56
2022-10-19T14:33:49.901Z,21.63
2022-10-19T14:36:52.079Z,21.69
2022-10-19T14:40:12.637Z,21.63
2022-10-19T14:43:35.511Z,21.44
2022-10-19T14:46:38.418Z,21.31
2022-10-19T14:49:42.403Z,21.44
2022-10-19T14:52:45.406Z,21.31
2022-10-19T14:55:49.702Z,21.19
2022-10-19T14:58:59.147Z,21.19
2022-10-19T15:02:12.556Z,21.13
2022-10-19T15:05:30.136Z,21.06
2022-10-19T15:08:43.707Z,21.00
2022-10-19T15:11:46.888Z,20.94
2022-10-19T15:15:00.793Z,20.75
2022-10-19T15:18:05.408Z,20.88
2022-10-19T15:21:18.431Z,20.81
2022-10-19T15:24:27.921Z,20.75
2022-10-19T15:27:35.882Z,20.81
2022-10-19T15:30:38.040Z,20.75
2022-10-19T15:33:52.636Z,20.69
2022-10-19T15:37:03.297Z,20.63
2022-10-19T15:40:24.097Z,20.63
2022-10-19T15:43:32.940Z,20.63
2022-10-19T15:46:56.214Z,20.50
2022-10-19T15:50:00.895Z,20.44
2022-10-19T15:53:03.112Z,20.56
2022-10-19T15:56:05.398Z,20.63
2022-10-19T15:59:13.187Z,20.50
2022-10-19T16:02:15.227Z,20.44
2022-10-19T16:05:17.310Z,20.44
2022-10-19T16:08:19.347Z,20.50
2022-10-19T16:11:23.215Z,20.50
2022-10-19T16:14:26.674Z,20.38
2022-10-19T16:17:29.185Z,20.25
2022-10-19T16:20:31.463Z,20.19
2022-10-19T16:23:39.313Z,20.19
2022-10-19T16:26:44.103Z,20.06
2022-10-19T16:29:46.316Z,20.00
2022-10-19T16:32:49.651Z,20.00
2022-10-19T16:35:51.700Z,19.88
2022-10-19T16:38:53.870Z,19.94
2022-10-19T16:41:56.040Z,19.94
2022-10-19T16:44:58.118Z,19.81
2022-10-19T16:48:00.128Z,20.13
2022-10-19T16:51:16.259Z,20.25
2022-10-19T16:54:19.367Z,20.31
2022-10-19T16:57:21.591Z,20.38
2022-10-19T17:00:24.034Z,20.38
2022-10-19T17:03:26.316Z,20.31
2022-10-19T17:06:29.021Z,20.38
2022-10-19T17:09:49.719Z,20.31
2022-10-19T17:12:53.986Z,20.31
2022-10-19T17:15:56.333Z,20.31
2022-10-19T17:18:59.656Z,20.31
2022-10-19T17:22:03.043Z,20.31
2022-10-19T17:25:05.865Z,20.31
2022-10-19T17:28:08.079Z,20.31
2022-10-19T17:31:13.135Z,20.31
2022-10-19T17:34:16.097Z,20.25
2022-10-19T17:37:18.317Z,20.31
2022-10-19T17:40:20.679Z,20.25
2022-10-19T17:43:22.896Z,20.31
2022-10-19T17:46:36.796Z,20.38
2022-10-19T17:49:42.222Z,20.38
2022-10-19T17:52:44.669Z,20.38
2022-10-19T17:55:47.200Z,20.38
2022-10-19T17:58:50.075Z,20.44
2022-10-19T18:01:52.424Z,20.44
2022-10-19T18:04:54.529Z,20.38
2022-10-19T18:07:56.752Z,20.38
2022-10-19T18:11:07.998Z,20.38
2022-10-19T18:14:11.884Z,20.38
2022-10-19T18:17:14.032Z,20.38
2022-10-19T18:20:16.568Z,20.38
2022-10-19T18:23:19.129Z,20.38
2022-10-19T18:26:24.229Z,20.38
2022-10-19T18:29:27.125Z,20.38
2022-10-19T18:32:29.370Z,20.38
2022-10-19T18:35:38.353Z,20.38
2022-10-19T18:38:40.557Z,20.31
2022-10-19T18:41:43.461Z,20.38
2022-10-19T18:44:47.156Z,20.31
2022-10-19T18:47:50.762Z,20.38
2022-10-19T18:50:53.140Z,20.44
2022-10-19T18:53:55.904Z,20.38
2022-10-19T18:56:58.096Z,20.38
2022-10-19T19:00:00.341Z,20.38
2022-10-19T19:03:02.957Z,20.31
2022-10-19T19:06:08.721Z,20.31
2022-10-19T19:09:11.941Z,20.25
2022-10-19T19:12:14.740Z,20.25
2022-10-19T19:15:17.896Z,20.25
2022-10-19T19:18:20.755Z,20.25
2022-10-19T19:21:25.558Z,20.19
2022-10-19T19:24:31.569Z,20.19
2022-10-19T19:27:33.835Z,20.13
2022-10-19T19:30:42.008Z,20.13
2022-10-19T19:33:45.699Z,20.13
2022-10-19T19:36:48.841Z,20.13
2022-10-19T19:39:51.889Z,20.13
2022-10-19T19:42:54.094Z,20.13
2022-10-19T19:46:04.753Z,20.06
2022-10-19T19:49:10.326Z,20.06
2022-10-19T19:52:12.757Z,20.06
2022-10-19T19:55:15.132Z,20.00
2022-10-19T19:58:18.811Z,20.00
2022-10-19T20:01:22.571Z,20.00
2022-10-19T20:04:25.077Z,20.00
2022-10-19T20:07:27.316Z,20.00
2022-10-19T20:10:30.101Z,20.00
2022-10-19T20:13:33.545Z,19.94
2022-10-19T20:16:37.124Z,19.94
2022-10-19T20:19:39.658Z,19.94
2022-10-19T20:22:46.398Z,20.00
2022-10-19T20:25:48.502Z,20.00
2022-10-19T20:28:51.574Z,20.00
2022-10-19T20:31:53.979Z,19.94
2022-10-19T20:34:56.316Z,20.00
2022-10-19T20:37:58.616Z,19.94
2022-10-19T20:41:06.959Z,20.00
2022-10-19T20:44:10.444Z,19.94
2022-10-19T20:47:12.858Z,19.94
2022-10-19T20:50:16.121Z,19.94
2022-10-19T20:53:20.340Z,19.94
2022-10-19T20:56:25.517Z,19.94
2022-10-19T20:59:27.669Z,19.94
2022-10-19T21:02:29.837Z,19.94
2022-10-19T21:05:31.974Z,19.88
2022-10-19T21:08:37.962Z,19.88
2022-10-19T21:11:42.303Z,19.94
2022-10-19T21:14:44.379Z,19.88
2022-10-19T21:17:47.830Z,19.88
2022-10-19T21:20:49.825Z,19.88
2022-10-19T21:23:56.856Z,19.88
2022-10-19T21:27:01.652Z,19.88
2022-10-19T21:30:04.601Z,19.88
2022-10-19T21:33:06.664Z,19.88
2022-10-19T21:36:10.237Z,19.81
2022-10-19T21:39:13.770Z,19.81
2022-10-19T21:42:16.040Z,19.81
2022-10-19T21:45:29.968Z,19.81
2022-10-19T21:48:33.744Z,19.81
2022-10-19T21:51:48.755Z,19.81
2022-10-19T21:54:50.773Z,19.81
2022-10-19T21:57:53.227Z,19.81
2022-10-19T22:00:55.232Z,19.75
2022-10-19T22:03:59.086Z,19.75
2022-10-19T22:07:04.745Z,19.75
2022-10-19T22:10:07.172Z,19.75
2022-10-19T22:13:09.247Z,19.75
2022-10-19T22:16:16.782Z,19.75
2022-10-19T22:19:19.028Z,19.75
2022-10-19T22:22:21.065Z,19.75
2022-10-19T22:25:23.168Z,19.75
2022-10-19T22:28:25.282Z,19.69
2022-10-19T22:31:28.589Z,19.69
2022-10-19T22:34:32.158Z,19.69
2022-10-19T22:37:35.093Z,19.69
2022-10-19T22:40:37.189Z,19.69
2022-10-19T22:43:39.265Z,19.69
2022-10-19T22:46:41.463Z,19.69
2022-10-19T22:49:43.879Z,19.69
2022-10-19T22:52:45.869Z,19.69
2022-10-19T22:55:48.281Z,19.63
2022-10-19T22:58:50.484Z,19.63
2022-10-19T23:01:52.509Z,19.69
2022-10-19T23:04:54.760Z,19.69
2022-10-19T23:07:56.802Z,19.63
2022-10-19T23:10:58.886Z,19.63
2022-10-19T23:14:00.955Z,19.63
2022-10-19T23:17:03.061Z,19.69
2022-10-19T23:20:05.572Z,19.63
2022-10-19T23:23:08.348Z,19.63
2022-10-19T23:26:16.712Z,19.63
2022-10-19T23:29:18.852Z,19.63
2022-10-19T23:32:20.982Z,19.63
2022-10-19T23:35:23.012Z,19.63
2022-10-19T23:38:25.006Z,19.56
2022-10-19T23:41:28.545Z,19.56
2022-10-19T23:44:30.648Z,19.63
2022-10-19T23:47:33.124Z,19.63
2022-10-19T23:50:35.385Z,19.56
2022-10-19T23:53:41.272Z,19.56
2022-10-19T23:56:43.753Z,19.56
2022-10-19T23:59:46.258Z,19.56
